Time;durP1;ratioP1;P1;durP2;ratioP2;P2;SDS_P1;SDS_P2;PMS_P1;PMS_P2;Temp;Humidity;BMP_temperature;BMP_pressure;BME280_temperature;BME280_humidity;BME280_pressure;Samples;Min_cycle;Max_cycle;Signal;HPM_P1;HPM_P2
2021/08/20 00:00:09;;;;;;;18.15;10.27;;;;;;;;;;4997054;28;20040;-57
2021/08/20 00:02:35;;;;;;;18.55;10.50;;;;;;;;;;5005650;28;20042;-57
2021/08/20 00:05:02;;;;;;;17.13;9.20;;;;;;;;;;5004125;28;20033;-56
2021/08/20 00:07:28;;;;;;;17.48;8.95;;;;;;;;;;5006062;28;20248;-56
2021/08/20 00:09:56;;;;;;;16.48;8.10;;;;;;;;;;4998004;28;20045;-57
2021/08/20 00:12:22;;;;;;;15.55;8.32;;;;;;;;;;5003421;28;20050;-55
2021/08/20 00:14:49;;;;;;;17.23;8.57;;;;;;;;;;5001709;28;20070;-53
2021/08/20 00:17:17;;;;;;;14.35;8.23;;;;;;;;;;5007631;28;20050;-56
2021/08/20 00:19:44;;;;;;;16.08;8.43;;;;;;;;;;4986224;28;20116;-57
2021/08/20 00:22:10;;;;;;;15.02;7.78;;;;;;;;;;5002974;28;20096;-56
2021/08/20 00:24:37;;;;;;;22.00;8.25;;;;;;;;;;4983360;28;20048;-57
2021/08/20 00:27:03;;;;;;;19.08;8.68;;;;;;;;;;4986419;28;20041;-56
2021/08/20 00:29:30;;;;;;;15.27;8.05;;;;;;;;;;4985170;28;20041;-57
2021/08/20 00:31:57;;;;;;;15.82;8.20;;;;;;;;;;5004042;28;20037;-57
2021/08/20 00:34:25;;;;;;;14.32;7.90;;;;;;;;;;4994071;28;20063;-57
2021/08/20 00:36:51;;;;;;;19.98;8.27;;;;;;;;;;5002674;28;20046;-55
2021/08/20 00:39:18;;;;;;;13.57;7.60;;;;;;;;;;5002607;28;20114;-55
2021/08/20 00:41:45;;;;;;;18.63;8.60;;;;;;;;;;4982637;28;20045;-57
2021/08/20 00:44:12;;;;;;;21.23;8.00;;;;;;;;;;4984451;28;20177;-57
2021/08/20 00:46:39;;;;;;;23.67;8.40;;;;;;;;;;4998783;28;20038;-54
2021/08/20 00:49:05;;;;;;;15.95;8.07;;;;;;;;;;4984388;28;20038;-56
2021/08/20 00:51:36;;;;;;;16.00;8.00;;;;;;;;;;4980702;28;20152;-55
2021/08/20 00:54:03;;;;;;;14.60;7.63;;;;;;;;;;5003375;28;20127;-54
2021/08/20 00:56:30;;;;;;;21.98;8.27;;;;;;;;;;4990320;28;20042;-56
2021/08/20 00:58:56;;;;;;;17.48;8.18;;;;;;;;;;4985158;28;20036;-58
2021/08/20 01:01:23;;;;;;;17.08;7.32;;;;;;;;;;4983321;28;20057;-56
2021/08/20 01:03:50;;;;;;;16.70;8.10;;;;;;;;;;5003636;28;20135;-56
2021/08/20 01:06:17;;;;;;;13.63;7.90;;;;;;;;;;4984823;28;20056;-57
2021/08/20 01:08:45;;;;;;;15.35;7.32;;;;;;;;;;5002194;28;20038;-55
2021/08/20 01:11:13;;;;;;;17.40;7.10;;;;;;;;;;4988155;28;20393;-53
2021/08/20 01:13:40;;;;;;;14.27;7.25;;;;;;;;;;4985645;28;20058;-56
2021/08/20 01:16:08;;;;;;;18.95;7.95;;;;;;;;;;5003075;28;20042;-56
2021/08/20 01:18:35;;;;;;;14.60;6.95;;;;;;;;;;5006356;28;20049;-57
2021/08/20 01:21:04;;;;;;;15.73;7.68;;;;;;;;;;4998041;28;20050;-56
2021/08/20 01:23:31;;;;;;;14.77;7.22;;;;;;;;;;4991060;28;20029;-55
2021/08/20 01:25:59;;;;;;;13.40;7.18;;;;;;;;;;5001901;28;20057;-55
2021/08/20 01:28:29;;;;;;;15.25;7.32;;;;;;;;;;4984504;28;20046;-57
2021/08/20 01:30:58;;;;;;;16.88;7.45;;;;;;;;;;4984186;28;20061;-52
2021/08/20 01:33:25;;;;;;;14.23;7.55;;;;;;;;;;4983033;28;20061;-55
2021/08/20 01:35:51;;;;;;;15.35;8.02;;;;;;;;;;4984257;28;20050;-57
2021/08/20 01:38:18;;;;;;;13.40;7.15;;;;;;;;;;4983173;28;20050;-56
2021/08/20 01:40:45;;;;;;;14.60;7.05;;;;;;;;;;4986047;28;20048;-56
2021/08/20 01:43:12;;;;;;;17.42;7.80;;;;;;;;;;4991122;28;20049;-57
2021/08/20 01:45:39;;;;;;;14.37;7.67;;;;;;;;;;5005042;28;20127;-56
2021/08/20 01:48:06;;;;;;;15.02;7.20;;;;;;;;;;4997766;28;20317;-57
2021/08/20 01:50:39;;;;;;;17.92;8.05;;;;;;;;;;5005003;28;20120;-56
2021/08/20 01:53:07;;;;;;;18.10;7.47;;;;;;;;;;4998057;28;20045;-56
2021/08/20 01:55:34;;;;;;;21.00;7.30;;;;;;;;;;4991436;28;20050;-57
2021/08/20 01:58:01;;;;;;;16.23;7.72;;;;;;;;;;5000293;28;20031;-56
2021/08/20 02:00:29;;;;;;;15.23;8.13;;;;;;;;;;4984005;28;20048;-57
2021/08/20 02:02:56;;;;;;;13.52;7.43;;;;;;;;;;4973744;28;20053;-56
2021/08/20 02:05:22;;;;;;;22.55;8.35;;;;;;;;;;4988015;28;20034;-54
2021/08/20 02:07:49;;;;;;;15.13;7.95;;;;;;;;;;4986627;28;20042;-57
2021/08/20 02:10:17;;;;;;;20.75;8.13;;;;;;;;;;4996461;28;20053;-57
2021/08/20 02:12:43;;;;;;;19.77;8.55;;;;;;;;;;5003861;28;20038;-54
2021/08/20 02:15:10;;;;;;;17.75;8.70;;;;;;;;;;4984679;28;20073;-56
2021/08/20 02:17:38;;;;;;;19.42;8.90;;;;;;;;;;4989094;28;20018;-60
2021/08/20 02:20:05;;;;;;;17.27;9.30;;;;;;;;;;4987744;28;20026;-55
2021/08/20 02:22:32;;;;;;;16.13;8.18;;;;;;;;;;4978431;28;20305;-56
2021/08/20 02:24:58;;;;;;;23.77;9.40;;;;;;;;;;4991549;28;20034;-57
2021/08/20 02:27:25;;;;;;;17.45;8.60;;;;;;;;;;5003603;28;20043;-56
2021/08/20 02:29:51;;;;;;;17.65;8.13;;;;;;;;;;4994818;28;20050;-57
2021/08/20 02:32:18;;;;;;;17.58;9.00;;;;;;;;;;4986714;28;20038;-54
2021/08/20 02:34:47;;;;;;;22.60;8.68;;;;;;;;;;4984732;28;20057;-57
2021/08/20 02:37:13;;;;;;;17.15;8.25;;;;;;;;;;4985981;28;20064;-54
2021/08/20 02:39:40;;;;;;;17.10;8.85;;;;;;;;;;5003204;28;20119;-56
2021/08/20 02:42:06;;;;;;;15.07;8.75;;;;;;;;;;4986998;28;20030;-55
2021/08/20 02:44:33;;;;;;;17.25;9.05;;;;;;;;;;4984990;28;20042;-56
2021/08/20 02:46:59;;;;;;;17.73;9.27;;;;;;;;;;4987379;28;20030;-55
2021/08/20 02:49:26;;;;;;;20.60;9.80;;;;;;;;;;4988211;28;20034;-53
2021/08/20 02:51:54;;;;;;;18.65;9.35;;;;;;;;;;4985870;28;20045;-52
2021/08/20 02:54:20;;;;;;;19.33;9.60;;;;;;;;;;4991463;28;20077;-54
2021/08/20 02:56:47;;;;;;;18.63;9.07;;;;;;;;;;4988731;28;20042;-51
2021/08/20 02:59:13;;;;;;;16.77;8.70;;;;;;;;;;4987552;28;20057;-56
2021/08/20 03:01:48;;;;;;;17.77;9.90;;;;;;;;;;4984082;28;20052;-56
2021/08/20 03:04:14;;;;;;;16.23;9.05;;;;;;;;;;4984251;28;20052;-55
2021/08/20 03:06:41;;;;;;;17.83;9.13;;;;;;;;;;4982226;28;20054;-57
2021/08/20 03:09:09;;;;;;;20.33;9.02;;;;;;;;;;4987329;28;20058;-57
2021/08/20 03:11:35;;;;;;;16.60;8.93;;;;;;;;;;4989082;28;20034;-54
2021/08/20 03:14:02;;;;;;;20.95;9.82;;;;;;;;;;4985654;28;20361;-56
2021/08/20 03:16:29;;;;;;;18.33;9.85;;;;;;;;;;4983704;28;20046;-56
2021/08/20 03:18:55;;;;;;;21.40;9.13;;;;;;;;;;4986835;28;20042;-57
2021/08/20 03:21:29;;;;;;;17.20;9.73;;;;;;;;;;4984916;28;20034;-55
2021/08/20 03:23:56;;;;;;;22.33;9.95;;;;;;;;;;4990934;28;20030;-56
2021/08/20 03:26:24;;;;;;;18.80;10.07;;;;;;;;;;4976753;28;20034;-56
2021/08/20 03:28:51;;;;;;;23.02;10.30;;;;;;;;;;5003376;28;20042;-57
2021/08/20 03:31:20;;;;;;;18.98;10.00;;;;;;;;;;4984788;28;20049;-52
2021/08/20 03:33:46;;;;;;;19.17;9.63;;;;;;;;;;5007083;28;20033;-57
2021/08/20 03:36:13;;;;;;;20.60;10.10;;;;;;;;;;5006991;28;20119;-55
2021/08/20 03:38:40;;;;;;;20.23;9.77;;;;;;;;;;5001327;28;20029;-56
2021/08/20 03:41:07;;;;;;;18.73;9.90;;;;;;;;;;5007076;28;20054;-57
2021/08/20 03:43:34;;;;;;;21.08;10.75;;;;;;;;;;5002601;28;20034;-56
2021/08/20 03:46:03;;;;;;;19.63;9.38;;;;;;;;;;5005841;28;20061;-56
2021/08/20 03:48:29;;;;;;;18.63;10.45;;;;;;;;;;4999157;28;20065;-57
2021/08/20 03:50:56;;;;;;;17.65;9.15;;;;;;;;;;5001288;28;20034;-57
2021/08/20 03:53:23;;;;;;;24.45;11.45;;;;;;;;;;4997895;28;20124;-57
2021/08/20 03:55:49;;;;;;;22.02;10.70;;;;;;;;;;4989727;28;20053;-56
2021/08/20 03:58:17;;;;;;;21.25;11.07;;;;;;;;;;4992742;28;20492;-56
2021/08/20 04:00:51;;;;;;;20.05;10.32;;;;;;;;;;5005467;28;20119;-56
2021/08/20 04:03:17;;;;;;;21.30;10.68;;;;;;;;;;4993351;28;20061;-55
2021/08/20 04:05:44;;;;;;;23.30;11.13;;;;;;;;;;5004639;28;20501;-56
2021/08/20 04:08:11;;;;;;;20.20;11.15;;;;;;;;;;4981855;28;20121;-55
2021/08/20 04:10:38;;;;;;;25.67;11.55;;;;;;;;;;4990820;28;20030;-56
2021/08/20 04:13:05;;;;;;;23.83;12.13;;;;;;;;;;4998334;28;20038;-57
2021/08/20 04:15:31;;;;;;;21.77;11.25;;;;;;;;;;4984885;28;20280;-55
2021/08/20 04:17:59;;;;;;;21.55;10.73;;;;;;;;;;5003422;28;20046;-56
2021/08/20 04:20:26;;;;;;;24.87;11.73;;;;;;;;;;4985473;28;20066;-57
2021/08/20 04:22:54;;;;;;;26.83;12.48;;;;;;;;;;4986879;28;20093;-57
2021/08/20 04:25:20;;;;;;;22.60;10.65;;;;;;;;;;5001725;28;20048;-55
2021/08/20 04:27:47;;;;;;;31.13;11.80;;;;;;;;;;4984786;28;20053;-57
2021/08/20 04:30:14;;;;;;;24.58;11.38;;;;;;;;;;5015279;28;20045;-56
2021/08/20 04:32:40;;;;;;;30.15;11.82;;;;;;;;;;4995488;28;20033;-55
2021/08/20 04:35:09;;;;;;;21.60;11.50;;;;;;;;;;4990165;28;20046;-55
2021/08/20 04:37:35;;;;;;;26.60;12.75;;;;;;;;;;4986769;28;20026;-54
2021/08/20 04:40:02;;;;;;;22.23;11.13;;;;;;;;;;4991755;28;20037;-53
2021/08/20 04:42:28;;;;;;;26.67;11.95;;;;;;;;;;5005799;28;20041;-52
2021/08/20 04:44:55;;;;;;;24.23;11.88;;;;;;;;;;4998669;28;20128;-53
2021/08/20 04:47:21;;;;;;;24.00;11.77;;;;;;;;;;5002368;28;20041;-57
2021/08/20 04:49:48;;;;;;;25.15;12.13;;;;;;;;;;4998125;28;20127;-56
2021/08/20 04:52:16;;;;;;;25.80;11.80;;;;;;;;;;4985492;28;20481;-56
2021/08/20 04:54:44;;;;;;;19.47;10.67;;;;;;;;;;4987173;28;20066;-54
2021/08/20 04:57:11;;;;;;;22.95;11.30;;;;;;;;;;5008224;28;20290;-57
2021/08/20 04:59:37;;;;;;;24.65;11.63;;;;;;;;;;5003641;28;20033;-54
2021/08/20 05:02:04;;;;;;;26.10;11.20;;;;;;;;;;5022339;28;20034;-57
2021/08/20 05:04:34;;;;;;;22.48;11.73;;;;;;;;;;5004055;28;20062;-57
2021/08/20 05:07:00;;;;;;;23.15;11.32;;;;;;;;;;4980025;28;20132;-56
2021/08/20 05:09:28;;;;;;;26.13;12.30;;;;;;;;;;4983046;28;20051;-56
2021/08/20 05:11:55;;;;;;;26.97;13.13;;;;;;;;;;4978592;28;20038;-57
2021/08/20 05:14:21;;;;;;;27.55;12.80;;;;;;;;;;4991368;28;20037;-57
2021/08/20 05:16:48;;;;;;;25.17;12.05;;;;;;;;;;4993991;28;20046;-56
2021/08/20 05:19:15;;;;;;;25.23;11.70;;;;;;;;;;4996586;28;20060;-55
2021/08/20 05:21:42;;;;;;;22.08;11.75;;;;;;;;;;4990965;28;20142;-57
2021/08/20 05:24:09;;;;;;;25.47;10.97;;;;;;;;;;4993774;28;20101;-56
2021/08/20 05:26:37;;;;;;;22.33;11.40;;;;;;;;;;4993180;28;20042;-58
2021/08/20 05:29:04;;;;;;;23.50;11.77;;;;;;;;;;4993266;28;20038;-56
2021/08/20 05:31:30;;;;;;;22.67;11.82;;;;;;;;;;4992999;28;20124;-57
2021/08/20 05:33:57;;;;;;;28.10;11.50;;;;;;;;;;4988396;28;20042;-57
2021/08/20 05:36:24;;;;;;;23.42;11.45;;;;;;;;;;4992070;28;20273;-57
2021/08/20 05:38:50;;;;;;;25.70;12.00;;;;;;;;;;4993285;28;20137;-56
2021/08/20 05:41:17;;;;;;;25.50;11.90;;;;;;;;;;4987157;28;20038;-56
2021/08/20 05:43:45;;;;;;;26.00;11.50;;;;;;;;;;4991923;28;20050;-56
2021/08/20 05:46:11;;;;;;;25.70;12.43;;;;;;;;;;4991014;28;20046;-57
2021/08/20 05:48:39;;;;;;;22.77;10.55;;;;;;;;;;4983026;28;20057;-57
2021/08/20 05:51:06;;;;;;;24.47;10.73;;;;;;;;;;4989899;28;20050;-58
2021/08/20 05:53:32;;;;;;;22.58;11.23;;;;;;;;;;4986660;28;20288;-56
2021/08/20 05:55:59;;;;;;;22.88;11.65;;;;;;;;;;4991122;28;20101;-56
2021/08/20 05:58:25;;;;;;;27.48;11.70;;;;;;;;;;4989449;28;20035;-58
2021/08/20 06:00:54;;;;;;;32.03;13.15;;;;;;;;;;4989845;28;20042;-57
2021/08/20 06:03:21;;;;;;;29.23;14.77;;;;;;;;;;4986315;28;20053;-57
2021/08/20 06:05:48;;;;;;;29.38;14.18;;;;;;;;;;4992173;28;20066;-56
2021/08/20 06:08:14;;;;;;;26.85;12.35;;;;;;;;;;4992603;28;20062;-56
2021/08/20 06:10:44;;;;;;;32.50;11.40;;;;;;;;;;4998226;28;20075;-55
2021/08/20 06:13:10;;;;;;;31.08;12.00;;;;;;;;;;4990560;28;20049;-58
2021/08/20 06:15:37;;;;;;;26.85;11.48;;;;;;;;;;4989117;28;20038;-55
2021/08/20 06:18:04;;;;;;;23.55;11.55;;;;;;;;;;5001065;28;20046;-56
2021/08/20 06:20:32;;;;;;;26.10;11.27;;;;;;;;;;4982261;28;20043;-57
2021/08/20 06:22:59;;;;;;;25.47;10.63;;;;;;;;;;4979437;28;20287;-56
2021/08/20 06:25:25;;;;;;;21.90;11.38;;;;;;;;;;4981545;28;20086;-56
2021/08/20 06:27:52;;;;;;;22.55;10.27;;;;;;;;;;4984841;28;20046;-57
2021/08/20 06:30:19;;;;;;;21.60;10.73;;;;;;;;;;4979448;28;20035;-56
2021/08/20 06:32:45;;;;;;;23.38;11.38;;;;;;;;;;4981128;28;20053;-57
2021/08/20 06:35:13;;;;;;;23.48;11.40;;;;;;;;;;4978305;28;20067;-54
2021/08/20 06:37:39;;;;;;;25.27;10.60;;;;;;;;;;4979865;28;20145;-57
2021/08/20 06:40:07;;;;;;;22.63;11.02;;;;;;;;;;4978590;28;20039;-59
2021/08/20 06:42:33;;;;;;;23.45;10.90;;;;;;;;;;4980662;28;20069;-56
2021/08/20 06:45:00;;;;;;;23.92;10.77;;;;;;;;;;4987985;28;20030;-56
2021/08/20 06:47:26;;;;;;;24.05;10.73;;;;;;;;;;5002754;28;20038;-54
2021/08/20 06:49:53;;;;;;;23.42;10.07;;;;;;;;;;4988253;28;20050;-56
2021/08/20 06:52:23;;;;;;;21.40;10.02;;;;;;;;;;4980656;28;20146;-56
2021/08/20 06:54:50;;;;;;;26.30;11.45;;;;;;;;;;4985655;28;20044;-55
2021/08/20 06:57:16;;;;;;;24.60;10.93;;;;;;;;;;5004128;28;20053;-56
2021/08/20 06:59:42;;;;;;;24.75;10.90;;;;;;;;;;4999179;28;20038;-57
2021/08/20 07:02:09;;;;;;;26.35;12.32;;;;;;;;;;5001624;28;20050;-58
2021/08/20 07:04:35;;;;;;;23.85;10.88;;;;;;;;;;4999476;28;20094;-58
2021/08/20 07:07:02;;;;;;;23.30;10.93;;;;;;;;;;4982652;28;20414;-56
2021/08/20 07:09:30;;;;;;;23.75;10.40;;;;;;;;;;4983665;28;20046;-56
2021/08/20 07:11:57;;;;;;;22.30;10.83;;;;;;;;;;4991757;28;20120;-56
2021/08/20 07:14:23;;;;;;;22.73;9.98;;;;;;;;;;5002376;28;20345;-58
2021/08/20 07:16:50;;;;;;;21.05;10.50;;;;;;;;;;4984195;28;20062;-59
2021/08/20 07:19:16;;;;;;;21.25;9.90;;;;;;;;;;4984740;28;20093;-58
2021/08/20 07:21:45;;;;;;;21.33;10.50;;;;;;;;;;4980591;28;20047;-58
2021/08/20 07:24:11;;;;;;;21.10;10.48;;;;;;;;;;4984181;28;20091;-57
2021/08/20 07:26:39;;;;;;;28.05;11.40;;;;;;;;;;4980236;28;20046;-58
2021/08/20 07:29:06;;;;;;;21.93;11.57;;;;;;;;;;4983861;28;20042;-59
2021/08/20 07:31:35;;;;;;;20.63;9.43;;;;;;;;;;4987817;28;20158;-57
2021/08/20 07:34:01;;;;;;;18.95;9.70;;;;;;;;;;4997016;28;20043;-57
2021/08/20 07:36:28;;;;;;;21.15;9.73;;;;;;;;;;4980485;28;20133;-59
2021/08/20 07:38:54;;;;;;;21.67;9.65;;;;;;;;;;4983019;28;20071;-57
2021/08/20 07:41:21;;;;;;;19.35;9.77;;;;;;;;;;4980599;28;20042;-59
2021/08/20 07:43:49;;;;;;;20.30;9.65;;;;;;;;;;4984268;28;20070;-59
2021/08/20 07:46:16;;;;;;;22.95;9.82;;;;;;;;;;4982103;28;20054;-58
2021/08/20 07:48:42;;;;;;;22.50;10.50;;;;;;;;;;5003605;28;20046;-58
2021/08/20 07:51:09;;;;;;;20.90;10.32;;;;;;;;;;5002269;28;20116;-59
2021/08/20 07:53:35;;;;;;;22.60;10.18;;;;;;;;;;4979135;28;20086;-58
2021/08/20 07:56:02;;;;;;;23.08;10.45;;;;;;;;;;4985122;28;20047;-59
2021/08/20 07:58:28;;;;;;;19.55;10.10;;;;;;;;;;4983435;28;20026;-58
2021/08/20 08:00:56;;;;;;;22.40;10.13;;;;;;;;;;4985773;28;20120;-59
2021/08/20 08:03:28;;;;;;;23.92;11.05;;;;;;;;;;4979411;28;20042;-60
2021/08/20 08:05:55;;;;;;;25.40;11.50;;;;;;;;;;4992117;28;20053;-58
2021/08/20 08:08:21;;;;;;;28.38;12.98;;;;;;;;;;4990857;28;20033;-55
2021/08/20 08:10:48;;;;;;;20.13;10.13;;;;;;;;;;4987894;28;20096;-59
2021/08/20 08:13:14;;;;;;;17.42;9.35;;;;;;;;;;4981166;28;20169;-57
2021/08/20 08:15:41;;;;;;;17.05;9.13;;;;;;;;;;4985391;28;20074;-57
2021/08/20 08:18:09;;;;;;;15.82;8.55;;;;;;;;;;4984347;28;20046;-55
2021/08/20 08:20:37;;;;;;;22.30;9.07;;;;;;;;;;5003606;28;20034;-56
2021/08/20 08:23:03;;;;;;;21.03;9.90;;;;;;;;;;4984069;28;20302;-56
2021/08/20 08:25:30;;;;;;;21.98;10.90;;;;;;;;;;5003459;28;20374;-56
2021/08/20 08:27:57;;;;;;;17.63;10.35;;;;;;;;;;4998733;28;20042;-55
2021/08/20 08:30:26;;;;;;;26.17;12.55;;;;;;;;;;5021716;28;20038;-57
2021/08/20 08:32:53;;;;;;;21.25;11.13;;;;;;;;;;5004302;28;20355;-56
2021/08/20 08:35:20;;;;;;;20.33;10.38;;;;;;;;;;4982671;28;20052;-53
2021/08/20 08:37:47;;;;;;;20.25;11.45;;;;;;;;;;4982925;28;20042;-55
2021/08/20 08:40:15;;;;;;;22.77;10.88;;;;;;;;;;4981729;28;20038;-56
2021/08/20 08:42:41;;;;;;;21.63;10.98;;;;;;;;;;4984116;28;20050;-56
2021/08/20 08:45:08;;;;;;;20.63;10.48;;;;;;;;;;4981071;28;20042;-56
2021/08/20 08:47:35;;;;;;;19.00;10.55;;;;;;;;;;4986554;28;20136;-56
2021/08/20 08:50:03;;;;;;;18.70;10.98;;;;;;;;;;4981604;28;20030;-53
2021/08/20 08:52:33;;;;;;;21.15;10.50;;;;;;;;;;4984267;28;20073;-56
2021/08/20 08:55:00;;;;;;;17.20;9.50;;;;;;;;;;4984137;28;20110;-56
2021/08/20 08:57:29;;;;;;;21.92;10.98;;;;;;;;;;4986540;28;20046;-56
2021/08/20 08:59:57;;;;;;;18.17;9.65;;;;;;;;;;4982299;28;20049;-56
2021/08/20 09:02:25;;;;;;;20.52;10.18;;;;;;;;;;4985519;28;20048;-56
2021/08/20 09:04:55;;;;;;;19.65;10.80;;;;;;;;;;4998791;28;20026;-56
2021/08/20 09:07:27;;;;;;;23.13;11.43;;;;;;;;;;5002692;28;20124;-56
2021/08/20 09:10:13;;;;;;;18.58;10.00;;;;;;;;;;4983455;28;20053;-57
2021/08/20 09:12:42;;;;;;;18.35;10.90;;;;;;;;;;5003100;28;20042;-56
2021/08/20 09:15:09;;;;;;;15.57;10.07;;;;;;;;;;5019334;28;20038;-55
2021/08/20 09:17:36;;;;;;;20.10;9.98;;;;;;;;;;5005656;28;20104;-56
2021/08/20 09:20:16;;;;;;;18.58;10.15;;;;;;;;;;5000644;28;20148;-57
2021/08/20 09:22:42;;;;;;;18.20;9.90;;;;;;;;;;5004947;28;20037;-56
2021/08/20 09:25:28;;;;;;;19.40;8.60;;;;;;;;;;5000980;28;20033;-56
2021/08/20 09:28:08;;;;;;;17.92;9.57;;;;;;;;;;5005334;28;20041;-57
2021/08/20 09:30:35;;;;;;;15.45;8.93;;;;;;;;;;4995956;28;20038;-55
2021/08/20 09:33:02;;;;;;;15.77;8.52;;;;;;;;;;4985383;28;20042;-57
2021/08/20 09:35:35;;;;;;;15.32;8.73;;;;;;;;;;4981271;28;20038;-56
2021/08/20 09:38:06;;;;;;;16.65;7.40;;;;;;;;;;4985701;28;20038;-56
2021/08/20 09:40:33;;;;;;;13.85;7.95;;;;;;;;;;4982870;28;20136;-57
2021/08/20 09:43:12;;;;;;;15.27;7.78;;;;;;;;;;4981732;28;20038;-55
2021/08/20 09:45:39;;;;;;;16.73;9.15;;;;;;;;;;5001780;28;20062;-55
2021/08/20 09:48:06;;;;;;;25.25;10.10;;;;;;;;;;4999369;28;20056;-57
2021/08/20 09:50:42;;;;;;;14.43;7.30;;;;;;;;;;4985499;28;20061;-57
2021/08/20 09:53:12;;;;;;;15.15;7.70;;;;;;;;;;4982313;28;20070;-57
2021/08/20 09:55:39;;;;;;;19.48;7.47;;;;;;;;;;4985078;28;20043;-57
2021/08/20 09:58:07;;;;;;;19.77;7.63;;;;;;;;;;4999817;28;20058;-57
2021/08/20 10:00:35;;;;;;;17.73;7.70;;;;;;;;;;4985837;28;20089;-57
2021/08/20 10:03:03;;;;;;;18.60;7.30;;;;;;;;;;4997929;28;20095;-56
2021/08/20 10:05:30;;;;;;;14.05;7.13;;;;;;;;;;4996243;28;20039;-56
2021/08/20 10:07:58;;;;;;;15.43;6.63;;;;;;;;;;4956006;28;20127;-57
2021/08/20 10:10:27;;;;;;;12.05;6.25;;;;;;;;;;4990203;28;20089;-55
2021/08/20 10:12:56;;;;;;;14.10;6.43;;;;;;;;;;4973476;28;20061;-57
2021/08/20 10:15:23;;;;;;;14.23;6.47;;;;;;;;;;4965870;28;20027;-57
2021/08/20 10:17:51;;;;;;;13.02;5.75;;;;;;;;;;4980755;28;20039;-57
2021/08/20 10:20:18;;;;;;;14.05;6.05;;;;;;;;;;4965326;28;20119;-56
2021/08/20 10:22:45;;;;;;;11.65;6.13;;;;;;;;;;4961881;28;20049;-57
2021/08/20 10:25:11;;;;;;;14.05;5.63;;;;;;;;;;4965408;28;20109;-57
2021/08/20 10:27:39;;;;;;;13.27;5.30;;;;;;;;;;4964738;28;20133;-57
2021/08/20 10:30:08;;;;;;;16.98;6.82;;;;;;;;;;4989649;28;20038;-57
2021/08/20 10:32:34;;;;;;;12.63;6.88;;;;;;;;;;4985673;28;20057;-57
2021/08/20 10:35:02;;;;;;;13.50;6.60;;;;;;;;;;5006289;28;20107;-56
2021/08/20 10:37:30;;;;;;;15.00;6.20;;;;;;;;;;4990103;28;20039;-56
2021/08/20 10:39:59;;;;;;;12.02;6.18;;;;;;;;;;5002061;28;20291;-55
2021/08/20 10:42:36;;;;;;;11.00;5.75;;;;;;;;;;4986932;28;20057;-57
2021/08/20 10:45:07;;;;;;;15.13;6.97;;;;;;;;;;4984901;28;20053;-57
2021/08/20 10:47:34;;;;;;;11.43;6.30;;;;;;;;;;4988764;28;20050;-57
2021/08/20 10:50:10;;;;;;;12.10;7.10;;;;;;;;;;4969655;28;20133;-57
2021/08/20 10:52:38;;;;;;;12.05;6.43;;;;;;;;;;4968372;28;20050;-57
2021/08/20 10:55:15;;;;;;;19.73;8.50;;;;;;;;;;4974701;28;20042;-55
2021/08/20 10:58:10;;;;;;;13.50;7.60;;;;;;;;;;4988940;28;20046;-57
2021/08/20 11:00:38;;;;;;;11.77;5.47;;;;;;;;;;4982185;28;20050;-58
2021/08/20 11:03:05;;;;;;;12.67;6.40;;;;;;;;;;4967844;28;20109;-57
2021/08/20 11:05:43;;;;;;;12.20;5.90;;;;;;;;;;4978572;28;20108;-57
2021/08/20 11:08:43;;;;;;;10.80;5.68;;;;;;;;;;4987553;28;20030;-57
2021/08/20 11:11:28;;;;;;;15.30;5.78;;;;;;;;;;4980678;28;20050;-57
2021/08/20 11:14:14;;;;;;;14.50;5.78;;;;;;;;;;4975969;28;20042;-57
2021/08/20 11:16:40;;;;;;;11.80;5.97;;;;;;;;;;4966974;28;20038;-57
2021/08/20 11:19:07;;;;;;;10.68;5.80;;;;;;;;;;4967888;28;20039;-57
2021/08/20 11:21:44;;;;;;;11.48;5.40;;;;;;;;;;4964487;28;20058;-57
2021/08/20 11:24:12;;;;;;;10.45;5.93;;;;;;;;;;4983613;28;20055;-58
2021/08/20 11:26:40;;;;;;;15.07;5.95;;;;;;;;;;4979790;28;20046;-57
2021/08/20 11:29:07;;;;;;;10.00;5.10;;;;;;;;;;4987612;28;20086;-57
2021/08/20 11:31:36;;;;;;;9.38;5.30;;;;;;;;;;4983344;28;20115;-58
2021/08/20 11:34:04;;;;;;;10.80;4.70;;;;;;;;;;4984561;28;20034;-57
2021/08/20 11:36:31;;;;;;;8.13;4.10;;;;;;;;;;4970618;28;20042;-57
2021/08/20 11:39:01;;;;;;;8.25;4.00;;;;;;;;;;4966538;28;20079;-57
2021/08/20 11:41:30;;;;;;;9.68;4.13;;;;;;;;;;4961154;28;20053;-57
2021/08/20 11:43:58;;;;;;;16.15;6.30;;;;;;;;;;4965714;28;20078;-57
2021/08/20 11:46:25;;;;;;;12.00;4.93;;;;;;;;;;4965005;28;20039;-57
2021/08/20 11:48:52;;;;;;;9.60;5.07;;;;;;;;;;4966068;28;20046;-57
2021/08/20 11:51:29;;;;;;;8.73;4.70;;;;;;;;;;4985328;28;20042;-57
2021/08/20 11:53:56;;;;;;;9.02;4.95;;;;;;;;;;4986922;28;20096;-57
2021/08/20 11:56:24;;;;;;;8.60;4.20;;;;;;;;;;4978448;28;20120;-57
2021/08/20 11:58:50;;;;;;;9.60;4.55;;;;;;;;;;4968440;28;20053;-57
2021/08/20 12:01:21;;;;;;;8.93;4.05;;;;;;;;;;4983028;28;20083;-55
2021/08/20 12:03:49;;;;;;;8.77;3.70;;;;;;;;;;4985937;28;20055;-56
2021/08/20 12:06:16;;;;;;;7.93;3.70;;;;;;;;;;4983121;28;20042;-58
2021/08/20 12:08:42;;;;;;;9.70;3.35;;;;;;;;;;4966882;28;20031;-57
2021/08/20 12:11:11;;;;;;;8.60;3.25;;;;;;;;;;4980233;28;20165;-56
2021/08/20 12:13:46;;;;;;;7.50;3.20;;;;;;;;;;4999682;28;20046;-54
2021/08/20 12:16:13;;;;;;;8.05;3.33;;;;;;;;;;4987159;28;20054;-57
2021/08/20 12:18:42;;;;;;;6.95;2.97;;;;;;;;;;4967196;28;20050;-57
2021/08/20 12:21:14;;;;;;;4.82;2.50;;;;;;;;;;4967487;28;20030;-57
2021/08/20 12:23:55;;;;;;;6.97;3.10;;;;;;;;;;4977759;28;20106;-57
2021/08/20 12:26:21;;;;;;;10.57;3.88;;;;;;;;;;4986328;28;20042;-57
2021/08/20 12:28:50;;;;;;;8.38;4.30;;;;;;;;;;4969873;28;20045;-57
2021/08/20 12:31:21;;;;;;;14.68;5.43;;;;;;;;;;4985155;28;20038;-54
2021/08/20 12:33:57;;;;;;;12.60;4.43;;;;;;;;;;4976001;28;20060;-59
2021/08/20 12:36:23;;;;;;;6.65;3.13;;;;;;;;;;4986631;28;20042;-57
2021/08/20 12:39:06;;;;;;;7.43;3.40;;;;;;;;;;4973514;28;20045;-57
2021/08/20 12:41:32;;;;;;;8.00;3.20;;;;;;;;;;4967710;28;20038;-57
2021/08/20 12:44:00;;;;;;;9.60;3.38;;;;;;;;;;4963049;28;20034;-55
2021/08/20 12:46:33;;;;;;;7.72;3.78;;;;;;;;;;4965977;28;20098;-57
2021/08/20 12:49:00;;;;;;;7.93;3.55;;;;;;;;;;4973745;28;20038;-57
2021/08/20 12:51:30;;;;;;;9.73;4.00;;;;;;;;;;4985204;28;20046;-56
2021/08/20 12:54:03;;;;;;;7.82;4.10;;;;;;;;;;4992541;28;20158;-57
2021/08/20 12:56:30;;;;;;;8.88;3.95;;;;;;;;;;5002205;28;20124;-55
2021/08/20 12:58:59;;;;;;;8.30;3.22;;;;;;;;;;4977572;28;20050;-55
2021/08/20 13:01:27;;;;;;;;;;;;;;;;;;4965752;28;20113;-56
2021/08/20 13:03:55;;;;;;;9.25;3.35;;;;;;;;;;4962650;28;19929;-57
2021/08/20 13:06:21;;;;;;;6.00;2.70;;;;;;;;;;4961144;28;20046;-57
2021/08/20 13:08:49;;;;;;;7.30;3.05;;;;;;;;;;4982630;28;20042;-56
2021/08/20 13:11:15;;;;;;;6.60;2.75;;;;;;;;;;4972961;28;20058;-56
2021/08/20 13:13:44;;;;;;;7.15;3.95;;;;;;;;;;4981595;28;20079;-53
2021/08/20 13:16:10;;;;;;;;;;;;;;;;;;4961691;28;20070;-57
2021/08/20 13:18:36;;;;;;;7.10;2.92;;;;;;;;;;4982675;28;19918;-54
2021/08/20 13:21:05;;;;;;;8.20;2.75;;;;;;;;;;4962601;28;20050;-56
2021/08/20 13:23:32;;;;;;;8.45;3.92;;;;;;;;;;4982995;28;20046;-57
2021/08/20 13:25:58;;;;;;;8.80;3.20;;;;;;;;;;4977226;28;20038;-56
2021/08/20 13:28:25;;;;;;;7.13;3.70;;;;;;;;;;5001723;28;20074;-55
2021/08/20 13:30:52;;;;;;;10.57;4.00;;;;;;;;;;4982676;28;20051;-57
2021/08/20 13:33:19;;;;;;;10.90;4.07;;;;;;;;;;4985249;28;20133;-58
2021/08/20 13:35:45;;;;;;;8.50;3.95;;;;;;;;;;4973539;28;20046;-57
2021/08/20 13:38:13;;;;;;;12.20;6.72;;;;;;;;;;4967014;28;20042;-55
2021/08/20 13:40:39;;;;;;;12.25;5.13;;;;;;;;;;4961928;28;20062;-56
2021/08/20 13:43:10;;;;;;;9.90;5.53;;;;;;;;;;4965949;28;20038;-57
2021/08/20 13:45:37;;;;;;;8.68;3.90;;;;;;;;;;4960025;28;20054;-55
2021/08/20 13:48:04;;;;;;;5.55;3.30;;;;;;;;;;4981877;28;20070;-56
2021/08/20 13:50:31;;;;;;;8.07;3.70;;;;;;;;;;4964721;28;20046;-56
2021/08/20 13:52:57;;;;;;;8.30;3.35;;;;;;;;;;4967785;28;20065;-57
2021/08/20 13:55:25;;;;;;;6.32;3.45;;;;;;;;;;5002588;28;20054;-56
2021/08/20 13:57:52;;;;;;;11.20;3.58;;;;;;;;;;4963700;28;20043;-57
2021/08/20 14:00:18;;;;;;;7.55;3.45;;;;;;;;;;4965901;28;20043;-56
2021/08/20 14:02:45;;;;;;;8.50;4.20;;;;;;;;;;4978347;28;20121;-56
2021/08/20 14:05:11;;;;;;;10.10;4.70;;;;;;;;;;4987343;28;20034;-58
2021/08/20 14:07:38;;;;;;;9.02;4.00;;;;;;;;;;4999849;28;20157;-56
2021/08/20 14:10:05;;;;;;;7.15;4.07;;;;;;;;;;5003752;28;20049;-55
2021/08/20 14:12:33;;;;;;;9.25;5.03;;;;;;;;;;4988224;28;20046;-56
2021/08/20 14:15:00;;;;;;;13.98;7.32;;;;;;;;;;4983298;28;20106;-56
2021/08/20 14:17:26;;;;;;;10.27;6.03;;;;;;;;;;4980206;28;20046;-52
2021/08/20 14:19:54;;;;;;;15.25;7.03;;;;;;;;;;4984719;28;20043;-57
2021/08/20 14:22:20;;;;;;;15.13;6.40;;;;;;;;;;4979892;28;20500;-56
2021/08/20 14:24:47;;;;;;;12.65;6.60;;;;;;;;;;4982949;28;20045;-55
2021/08/20 14:27:13;;;;;;;11.52;6.10;;;;;;;;;;4981405;28;20054;-56
2021/08/20 14:29:43;;;;;;;15.15;6.22;;;;;;;;;;4984505;28;20043;-57
2021/08/20 14:32:10;;;;;;;11.82;6.28;;;;;;;;;;4981522;28;20150;-56